Time;durP1;ratioP1;P1;durP2;ratioP2;P2;SDS_P1;SDS_P2;PMS_P1;PMS_P2;Temp;Humidity;BMP_temperature;BMP_pressure;BME280_temperature;BME280_humidity;BME280_pressure;Samples;Min_cycle;Max_cycle;Signal;HPM_P1;HPM_P2
2023/03/21 00:02:22;;;;;;;35.05;19.25;;;;;;;;;;5027037;28;20104;-51
2023/03/21 00:04:48;;;;;;;36.55;18.10;;;;;;;;;;5027288;28;20021;-48
2023/03/21 00:07:13;;;;;;;34.58;18.02;;;;;;;;;;5027364;28;20025;-52
2023/03/21 00:09:39;;;;;;;33.00;17.52;;;;;;;;;;5026939;28;20505;-49
2023/03/21 00:12:08;;;;;;;34.95;17.42;;;;;;;;;;5027230;28;20037;-48
2023/03/21 00:14:33;;;;;;;;;;;;;;;;;;5027418;28;20036;-53
2023/03/21 00:16:59;;;;;;;27.67;15.60;;;;;;;;;;5026848;28;20290;-52
2023/03/21 00:19:25;;;;;;;28.20;15.55;;;;;;;;;;5026875;28;20029;-51
2023/03/21 00:21:51;;;;;;;31.75;17.00;;;;;;;;;;5026537;28;20029;-53
2023/03/21 00:24:17;;;;;;;31.60;18.23;;;;;;;;;;5026412;28;20060;-49
2023/03/21 00:26:42;;;;;;;37.90;17.65;;;;;;;;;;5026812;28;20076;-50
2023/03/21 00:29:07;;;;;;;35.28;18.70;;;;;;;;;;5026468;28;20048;-53
2023/03/21 00:31:33;;;;;;;32.90;17.08;;;;;;;;;;5026255;28;20072;-51
2023/03/21 00:33:58;;;;;;;35.75;18.83;;;;;;;;;;5026635;28;20026;-54
2023/03/21 00:36:24;;;;;;;30.35;17.52;;;;;;;;;;5026427;28;20198;-53
2023/03/21 00:38:50;;;;;;;31.20;17.35;;;;;;;;;;5025970;28;20370;-53
2023/03/21 00:41:16;;;;;;;40.55;17.33;;;;;;;;;;5025472;28;20021;-53
2023/03/21 00:43:41;;;;;;;36.75;17.30;;;;;;;;;;5026440;28;20429;-50
2023/03/21 00:46:06;;;;;;;35.88;17.63;;;;;;;;;;5025975;28;20436;-51
2023/03/21 00:48:32;;;;;;;31.50;15.82;;;;;;;;;;5026184;28;20458;-52
2023/03/21 00:50:59;;;;;;;36.58;16.77;;;;;;;;;;5025998;28;20017;-51
2023/03/21 00:53:25;;;;;;;29.77;16.17;;;;;;;;;;5025823;28;20131;-47
2023/03/21 00:55:50;;;;;;;31.55;15.82;;;;;;;;;;5025889;28;20025;-51
2023/03/21 00:58:16;;;;;;;30.63;15.77;;;;;;;;;;5025848;28;20109;-51
2023/03/21 01:00:42;;;;;;;28.20;16.20;;;;;;;;;;5026487;28;20104;-52
2023/03/21 01:03:09;;;;;;;29.05;16.00;;;;;;;;;;5025889;28;20028;-53
2023/03/21 01:06:04;;;;;;;31.95;16.98;;;;;;;;;;5025651;28;20485;-52
2023/03/21 01:08:36;;;;;;;33.33;16.52;;;;;;;;;;5025529;28;20037;-54
2023/03/21 01:11:07;;;;;;;27.45;16.20;;;;;;;;;;5025774;28;20071;-50
2023/03/21 01:13:32;;;;;;;31.45;17.25;;;;;;;;;;5025576;28;20037;-51
2023/03/21 01:15:58;;;;;;;29.88;16.60;;;;;;;;;;5026010;28;20021;-50
2023/03/21 01:18:26;;;;;;;30.38;16.63;;;;;;;;;;5025543;28;20021;-50
2023/03/21 01:20:52;;;;;;;33.47;16.35;;;;;;;;;;5024140;28;20025;-52
2023/03/21 01:23:17;;;;;;;29.63;16.08;;;;;;;;;;5025489;28;20777;-53
2023/03/21 01:25:42;;;;;;;32.03;17.02;;;;;;;;;;5025737;28;20408;-48
2023/03/21 01:28:08;;;;;;;30.60;16.27;;;;;;;;;;5025388;28;20463;-50
2023/03/21 01:30:34;;;;;;;31.75;16.20;;;;;;;;;;5025585;28;20498;-51
2023/03/21 01:32:59;;;;;;;30.15;16.58;;;;;;;;;;5025337;28;20033;-51
2023/03/21 01:35:25;;;;;;;29.90;17.38;;;;;;;;;;5025346;28;20506;-51
2023/03/21 01:37:50;;;;;;;31.05;17.50;;;;;;;;;;5025330;28;20433;-50
2023/03/21 01:40:23;;;;;;;31.60;16.48;;;;;;;;;;5025455;28;20083;-50
2023/03/21 01:42:48;;;;;;;27.05;16.88;;;;;;;;;;5025428;28;20251;-49
2023/03/21 01:45:32;;;;;;;30.30;16.75;;;;;;;;;;5024915;28;20087;-50
2023/03/21 01:47:58;;;;;;;31.23;16.92;;;;;;;;;;5024959;28;20471;-52
2023/03/21 01:50:24;;;;;;;30.40;17.08;;;;;;;;;;5025205;28;20053;-51
2023/03/21 01:52:49;;;;;;;32.63;18.10;;;;;;;;;;5024173;28;20022;-53
2023/03/21 01:55:15;;;;;;;33.53;17.60;;;;;;;;;;5024771;28;20028;-53
2023/03/21 01:57:46;;;;;;;30.30;17.38;;;;;;;;;;5024838;28;20025;-52
2023/03/21 02:00:12;;;;;;;32.95;16.88;;;;;;;;;;5025338;28;20029;-53
2023/03/21 02:02:49;;;;;;;32.47;17.70;;;;;;;;;;5024906;28;20025;-50
2023/03/21 02:05:20;;;;;;;31.48;18.00;;;;;;;;;;5024653;28;20026;-49
2023/03/21 02:07:46;;;;;;;31.10;16.30;;;;;;;;;;5024941;28;20713;-50
2023/03/21 02:10:12;;;;;;;29.25;16.73;;;;;;;;;;5025021;28;20013;-52
2023/03/21 02:12:37;;;;;;;30.95;17.80;;;;;;;;;;5024669;28;20022;-50
2023/03/21 02:15:03;;;;;;;31.85;18.20;;;;;;;;;;5024850;28;20356;-49
2023/03/21 02:17:28;;;;;;;32.30;17.92;;;;;;;;;;5024787;28;20152;-52
2023/03/21 02:20:14;;;;;;;31.30;17.63;;;;;;;;;;5024624;28;20029;-51
2023/03/21 02:22:45;;;;;;;33.13;17.38;;;;;;;;;;4985401;28;20041;-51
2023/03/21 02:25:28;;;;;;;34.85;18.70;;;;;;;;;;5002237;28;20069;-54
2023/03/21 02:27:54;;;;;;;31.70;17.10;;;;;;;;;;5002121;28;20034;-51
2023/03/21 02:30:23;;;;;;;31.73;18.63;;;;;;;;;;5002090;28;20050;-51
2023/03/21 02:32:54;;;;;;;31.45;17.38;;;;;;;;;;5002317;28;20037;-48
2023/03/21 02:35:25;;;;;;;35.60;18.23;;;;;;;;;;5002077;28;20161;-48
2023/03/21 02:38:04;;;;;;;25.88;15.82;;;;;;;;;;5002277;28;20033;-47
2023/03/21 02:40:34;;;;;;;34.88;17.55;;;;;;;;;;5002123;28;20442;-50
2023/03/21 02:42:59;;;;;;;35.00;17.05;;;;;;;;;;4985716;28;20037;-51
2023/03/21 02:45:28;;;;;;;33.95;16.02;;;;;;;;;;5001681;28;20784;-48
2023/03/21 02:47:58;;;;;;;34.03;16.45;;;;;;;;;;5002023;28;20038;-49
2023/03/21 02:50:26;;;;;;;32.78;15.48;;;;;;;;;;5001746;28;20088;-51
2023/03/21 02:52:52;;;;;;;24.92;15.65;;;;;;;;;;5002340;28;20530;-53
2023/03/21 02:55:24;;;;;;;27.23;14.75;;;;;;;;;;5002087;28;20033;-51
2023/03/21 02:57:51;;;;;;;24.50;15.68;;;;;;;;;;5002063;28;20029;-53
2023/03/21 03:00:18;;;;;;;29.58;16.27;;;;;;;;;;5017718;28;20386;-52
2023/03/21 03:02:44;;;;;;;29.52;16.63;;;;;;;;;;5024567;28;20117;-49
2023/03/21 03:05:13;;;;;;;26.63;14.95;;;;;;;;;;5026530;28;20037;-51
2023/03/21 03:07:45;;;;;;;28.67;15.20;;;;;;;;;;5027970;28;20028;-52
2023/03/21 03:10:11;;;;;;;25.30;15.18;;;;;;;;;;5028340;28;20053;-52
2023/03/21 03:12:42;;;;;;;35.33;16.02;;;;;;;;;;5027903;28;20053;-50
2023/03/21 03:15:22;;;;;;;27.55;15.45;;;;;;;;;;5028376;28;20025;-52
2023/03/21 03:17:54;;;;;;;28.95;14.25;;;;;;;;;;5028290;28;20052;-52
2023/03/21 03:20:19;;;;;;;26.33;15.02;;;;;;;;;;5028603;28;20107;-49
2023/03/21 03:22:53;;;;;;;27.20;15.77;;;;;;;;;;5027969;28;20053;-50
2023/03/21 03:25:25;;;;;;;28.88;16.55;;;;;;;;;;5027989;28;20112;-49
2023/03/21 03:27:51;;;;;;;29.88;16.58;;;;;;;;;;5028316;28;20021;-50
2023/03/21 03:30:17;;;;;;;28.92;16.48;;;;;;;;;;5027487;28;20140;-49
2023/03/21 03:32:48;;;;;;;29.25;16.60;;;;;;;;;;5027659;28;20109;-52
2023/03/21 03:35:15;;;;;;;30.33;17.85;;;;;;;;;;5027525;28;20061;-51
2023/03/21 03:37:41;;;;;;;31.33;15.93;;;;;;;;;;5027855;28;20112;-53
2023/03/21 03:40:12;;;;;;;30.10;17.48;;;;;;;;;;5027591;28;20116;-51
2023/03/21 03:42:41;;;;;;;34.15;17.50;;;;;;;;;;5027449;28;20025;-51
2023/03/21 03:45:08;;;;;;;32.83;18.42;;;;;;;;;;5027521;28;20021;-52
2023/03/21 03:47:33;;;;;;;31.05;18.05;;;;;;;;;;5026189;28;20596;-53
2023/03/21 03:50:08;;;;;;;28.55;16.30;;;;;;;;;;5027379;28;20092;-52
2023/03/21 03:52:38;;;;;;;32.90;18.77;;;;;;;;;;5027186;28;20449;-51
2023/03/21 03:55:04;;;;;;;40.35;21.65;;;;;;;;;;5027468;28;20036;-52
2023/03/21 03:57:30;;;;;;;35.28;20.20;;;;;;;;;;5027176;28;20017;-50
2023/03/21 03:59:55;;;;;;;41.63;19.17;;;;;;;;;;5041320;28;20056;-52
2023/03/21 04:02:21;;;;;;;39.47;20.92;;;;;;;;;;5027632;28;20060;-50
2023/03/21 04:04:47;;;;;;;45.63;21.20;;;;;;;;;;5027100;28;20136;-47
2023/03/21 04:07:13;;;;;;;42.38;20.95;;;;;;;;;;5027194;28;20017;-53
2023/03/21 04:09:38;;;;;;;43.05;20.63;;;;;;;;;;5027045;28;20028;-50
2023/03/21 04:12:03;;;;;;;44.70;19.38;;;;;;;;;;5027255;28;20025;-50
2023/03/21 04:14:29;;;;;;;40.22;19.85;;;;;;;;;;5027004;28;20573;-50
2023/03/21 04:16:54;;;;;;;42.83;18.95;;;;;;;;;;5026040;28;20494;-51
2023/03/21 04:19:19;;;;;;;39.50;19.27;;;;;;;;;;5041050;28;20068;-54
2023/03/21 04:21:45;;;;;;;38.10;19.70;;;;;;;;;;5026457;28;20044;-50
2023/03/21 04:24:12;;;;;;;38.83;20.95;;;;;;;;;;5041074;28;20037;-53
2023/03/21 04:26:38;;;;;;;40.80;19.58;;;;;;;;;;5026665;28;20425;-54
2023/03/21 04:29:04;;;;;;;45.92;22.48;;;;;;;;;;5026767;28;20104;-50
2023/03/21 04:31:30;;;;;;;42.65;21.70;;;;;;;;;;5025118;28;20103;-49
2023/03/21 04:33:59;;;;;;;46.67;20.17;;;;;;;;;;5026521;28;20026;-49
2023/03/21 04:36:32;;;;;;;44.35;20.30;;;;;;;;;;5026728;28;20391;-51
2023/03/21 04:39:00;;;;;;;40.20;19.05;;;;;;;;;;5026585;28;20090;-48
2023/03/21 04:41:29;;;;;;;58.83;23.40;;;;;;;;;;5026385;28;20061;-52
2023/03/21 04:43:55;;;;;;;69.30;26.13;;;;;;;;;;5026612;28;20031;-51
2023/03/21 04:46:20;;;;;;;64.95;27.35;;;;;;;;;;5026354;28;20418;-53
2023/03/21 04:48:46;;;;;;;66.07;26.45;;;;;;;;;;5026122;28;20037;-51
2023/03/21 04:51:11;;;;;;;68.55;28.13;;;;;;;;;;5026190;28;20026;-51
2023/03/21 04:53:38;;;;;;;58.38;26.67;;;;;;;;;;5026357;28;20029;-51
2023/03/21 04:56:04;;;;;;;73.47;25.15;;;;;;;;;;5026616;28;20565;-52
2023/03/21 04:58:29;;;;;;;59.13;26.52;;;;;;;;;;5040403;28;20026;-53
2023/03/21 05:00:56;;;;;;;63.53;24.33;;;;;;;;;;5025897;28;20040;-53
2023/03/21 05:03:21;;;;;;;61.90;25.40;;;;;;;;;;5025902;28;20029;-50
2023/03/21 05:05:47;;;;;;;53.90;22.25;;;;;;;;;;5025844;28;20099;-53
2023/03/21 05:08:12;;;;;;;48.88;21.17;;;;;;;;;;5026127;28;20022;-51
2023/03/21 05:10:38;;;;;;;48.53;21.58;;;;;;;;;;5025818;28;20458;-52
2023/03/21 05:13:03;;;;;;;50.15;20.17;;;;;;;;;;5025958;28;20383;-50
2023/03/21 05:15:28;;;;;;;52.53;20.65;;;;;;;;;;5025786;28;20509;-50
2023/03/21 05:17:54;;;;;;;40.55;18.15;;;;;;;;;;5025653;28;20548;-50
2023/03/21 05:20:19;;;;;;;39.75;18.33;;;;;;;;;;5025606;28;20052;-48
2023/03/21 05:22:45;;;;;;;42.53;18.27;;;;;;;;;;5025477;28;20021;-50
2023/03/21 05:25:11;;;;;;;42.03;19.33;;;;;;;;;;5025664;28;20057;-47
2023/03/21 05:27:36;;;;;;;34.50;18.08;;;;;;;;;;5025836;28;20116;-50
2023/03/21 05:30:01;;;;;;;34.72;16.85;;;;;;;;;;5025779;28;20148;-51
2023/03/21 05:32:26;;;;;;;32.53;15.40;;;;;;;;;;5025240;28;20057;-53
2023/03/21 05:34:52;;;;;;;35.72;16.45;;;;;;;;;;5025340;28;20034;-52
2023/03/21 05:37:17;;;;;;;37.15;18.00;;;;;;;;;;5025438;28;20029;-48
2023/03/21 05:39:42;;;;;;;35.28;18.42;;;;;;;;;;5039466;28;20847;-51
2023/03/21 05:42:08;;;;;;;33.97;16.30;;;;;;;;;;5025555;28;20032;-53
2023/03/21 05:44:33;;;;;;;28.35;17.70;;;;;;;;;;5025876;28;20040;-49
2023/03/21 05:46:58;;;;;;;43.30;17.75;;;;;;;;;;5025063;28;20022;-51
2023/03/21 05:49:25;;;;;;;46.15;16.83;;;;;;;;;;5025610;28;20399;-51
2023/03/21 05:51:51;;;;;;;39.92;19.17;;;;;;;;;;5025356;28;20022;-50
2023/03/21 05:54:16;;;;;;;37.33;17.67;;;;;;;;;;5024940;28;20029;-53
2023/03/21 05:56:41;;;;;;;30.92;16.58;;;;;;;;;;5025182;28;20053;-48
2023/03/21 05:59:07;;;;;;;27.27;15.85;;;;;;;;;;5025291;28;20334;-52
2023/03/21 06:01:32;;;;;;;22.35;14.15;;;;;;;;;;5024983;28;20418;-51
2023/03/21 06:03:57;;;;;;;21.58;13.82;;;;;;;;;;5025302;28;20477;-50
2023/03/21 06:06:22;;;;;;;22.98;12.68;;;;;;;;;;5039293;28;20487;-54
2023/03/21 06:08:48;;;;;;;19.52;11.93;;;;;;;;;;5025153;28;20109;-51
2023/03/21 06:11:24;;;;;;;24.40;12.02;;;;;;;;;;5025110;28;20030;-52
2023/03/21 06:13:50;;;;;;;22.35;12.10;;;;;;;;;;5024963;28;20025;-56
2023/03/21 06:16:15;;;;;;;22.83;11.52;;;;;;;;;;5025138;28;20055;-53
2023/03/21 06:18:40;;;;;;;24.58;10.27;;;;;;;;;;5025029;28;20092;-54
2023/03/21 06:21:06;;;;;;;17.73;9.85;;;;;;;;;;5024781;28;20021;-53
2023/03/21 06:23:31;;;;;;;21.40;9.70;;;;;;;;;;5024962;28;20087;-52
2023/03/21 06:25:56;;;;;;;17.15;9.32;;;;;;;;;;5025031;28;20101;-51
2023/03/21 06:28:22;;;;;;;13.70;8.77;;;;;;;;;;5024845;28;20274;-51
2023/03/21 06:30:47;;;;;;;13.27;8.15;;;;;;;;;;5024253;28;20060;-53
2023/03/21 06:33:12;;;;;;;15.88;8.40;;;;;;;;;;5024804;28;20197;-52
2023/03/21 06:35:37;;;;;;;17.85;8.10;;;;;;;;;;5038846;28;20750;-56
2023/03/21 06:38:03;;;;;;;23.55;7.88;;;;;;;;;;5024570;28;20036;-54
2023/03/21 06:40:28;;;;;;;10.10;7.50;;;;;;;;;;5027022;28;20017;-50
2023/03/21 06:42:54;;;;;;;10.65;7.10;;;;;;;;;;5043136;28;20120;-52
2023/03/21 06:45:19;;;;;;;8.98;6.75;;;;;;;;;;5027933;28;20025;-51
2023/03/21 06:47:44;;;;;;;10.88;6.30;;;;;;;;;;5026747;28;20017;-53
2023/03/21 06:50:10;;;;;;;8.55;6.50;;;;;;;;;;5028341;28;20337;-52
2023/03/21 06:52:35;;;;;;;9.98;6.50;;;;;;;;;;5028402;28;20029;-53
2023/03/21 06:55:00;;;;;;;8.32;6.60;;;;;;;;;;5027954;28;20021;-56
2023/03/21 06:57:26;;;;;;;8.77;6.60;;;;;;;;;;5027602;28;20033;-49
2023/03/21 06:59:51;;;;;;;9.38;7.05;;;;;;;;;;5028068;28;20509;-53
2023/03/21 07:02:16;;;;;;;7.15;5.95;;;;;;;;;;5028019;28;20455;-55
2023/03/21 07:04:41;;;;;;;8.93;5.93;;;;;;;;;;5029084;28;20399;-52
2023/03/21 07:07:07;;;;;;;11.27;6.30;;;;;;;;;;5027974;28;20025;-53
2023/03/21 07:09:32;;;;;;;11.30;6.80;;;;;;;;;;5014642;28;20029;-52
2023/03/21 07:11:57;;;;;;;8.13;5.67;;;;;;;;;;5023131;28;20597;-55
2023/03/21 07:14:23;;;;;;;7.55;5.60;;;;;;;;;;5030265;28;20410;-57
2023/03/21 07:16:48;;;;;;;7.70;5.88;;;;;;;;;;5021325;28;20121;-57
2023/03/21 07:19:14;;;;;;;8.98;6.45;;;;;;;;;;5018065;28;20033;-58
2023/03/21 07:21:39;;;;;;;8.70;6.13;;;;;;;;;;5025933;28;20037;-59
2023/03/21 07:24:05;;;;;;;8.48;5.82;;;;;;;;;;5028274;28;20466;-55
2023/03/21 07:26:30;;;;;;;9.70;5.70;;;;;;;;;;5025597;28;20398;-58
2023/03/21 07:28:55;;;;;;;10.77;6.63;;;;;;;;;;5013972;28;20076;-61
2023/03/21 07:31:24;;;;;;;7.50;5.72;;;;;;;;;;5027342;28;20060;-60
2023/03/21 07:33:50;;;;;;;13.73;5.05;;;;;;;;;;5014910;28;20030;-59
2023/03/21 07:36:15;;;;;;;7.35;5.93;;;;;;;;;;5028477;28;20423;-62
2023/03/21 07:38:44;;;;;;;9.15;5.60;;;;;;;;;;5037962;28;20268;-61
2023/03/21 07:41:09;;;;;;;;;;;;;;;;;;5022771;28;20025;-60
2023/03/21 07:43:35;;;;;;;11.10;5.17;;;;;;;;;;5026718;28;20326;-62
2023/03/21 07:46:00;;;;;;;8.43;5.97;;;;;;;;;;5025117;28;20243;-60
2023/03/21 07:48:26;;;;;;;8.93;5.88;;;;;;;;;;5031512;28;20024;-59
2023/03/21 07:50:52;;;;;;;11.02;6.05;;;;;;;;;;5040482;28;20116;-59
2023/03/21 07:53:18;;;;;;;8.35;5.85;;;;;;;;;;5030664;28;20029;-60
2023/03/21 07:55:43;;;;;;;8.77;4.78;;;;;;;;;;5038083;28;20538;-58
2023/03/21 07:58:08;;;;;;;6.60;4.57;;;;;;;;;;5031285;28;20486;-57
2023/03/21 08:00:33;;;;;;;10.85;4.82;;;;;;;;;;5035271;28;20021;-60
2023/03/21 08:02:59;;;;;;;7.30;4.55;;;;;;;;;;5010860;28;20033;-64
2023/03/21 08:05:33;;;;;;;8.60;5.63;;;;;;;;;;5031547;28;20115;-59
2023/03/21 08:07:59;;;;;;;7.88;5.35;;;;;;;;;;5021005;28;20510;-65
2023/03/21 08:10:24;;;;;;;7.93;4.93;;;;;;;;;;5011415;28;20025;-63
2023/03/21 08:12:50;;;;;;;12.77;5.53;;;;;;;;;;5025900;28;20108;-61
2023/03/21 08:15:15;;;;;;;8.57;5.15;;;;;;;;;;5029510;28;20095;-64
2023/03/21 08:17:44;;;;;;;7.72;5.05;;;;;;;;;;5041816;28;20055;-64
2023/03/21 08:20:11;;;;;;;10.88;4.45;;;;;;;;;;5042624;28;20075;-61
2023/03/21 08:22:37;;;;;;;10.73;4.80;;;;;;;;;;5024157;28;20028;-60
2023/03/21 08:25:06;;;;;;;10.20;5.22;;;;;;;;;;5033155;28;20033;-61
2023/03/21 08:27:32;;;;;;;5.13;4.28;;;;;;;;;;5029377;28;20026;-60
2023/03/21 08:29:58;;;;;;;9.50;5.00;;;;;;;;;;5027612;28;20037;-62
2023/03/21 08:32:28;;;;;;;7.47;5.07;;;;;;;;;;5027313;28;20060;-60
2023/03/21 08:34:53;;;;;;;10.00;5.13;;;;;;;;;;5015633;28;20029;-60
2023/03/21 08:37:19;;;;;;;21.50;7.70;;;;;;;;;;5012397;28;20022;-55
2023/03/21 08:39:44;;;;;;;19.27;5.07;;;;;;;;;;5007126;28;20364;-60
2023/03/21 08:42:10;;;;;;;9.55;5.28;;;;;;;;;;5016121;28;20674;-60
2023/03/21 08:44:37;;;;;;;7.82;4.80;;;;;;;;;;5015825;28;20549;-60
2023/03/21 08:47:03;;;;;;;15.25;5.38;;;;;;;;;;5022147;28;20071;-60
2023/03/21 08:49:28;;;;;;;9.93;5.30;;;;;;;;;;5025683;28;20053;-63
2023/03/21 08:51:56;;;;;;;16.07;5.83;;;;;;;;;;5021589;28;20024;-60
2023/03/21 08:54:22;;;;;;;34.63;10.68;;;;;;;;;;5022554;28;20489;-61
2023/03/21 08:56:47;;;;;;;14.43;5.05;;;;;;;;;;5029388;28;20569;-62
2023/03/21 08:59:12;;;;;;;8.55;4.88;;;;;;;;;;5025447;28;20408;-58
2023/03/21 09:01:38;;;;;;;16.77;6.20;;;;;;;;;;5024125;28;20026;-60
2023/03/21 09:04:06;;;;;;;7.57;5.15;;;;;;;;;;5021907;28;20463;-61
2023/03/21 09:06:32;;;;;;;17.08;5.13;;;;;;;;;;5020538;28;20055;-62
2023/03/21 09:08:58;;;;;;;23.55;6.63;;;;;;;;;;5022337;28;20037;-63
2023/03/21 09:11:23;;;;;;;7.53;4.50;;;;;;;;;;5023586;28;20021;-65
2023/03/21 09:13:48;;;;;;;6.93;3.47;;;;;;;;;;5030563;28;20041;-62
2023/03/21 09:16:14;;;;;;;5.60;3.80;;;;;;;;;;5032347;28;20341;-63
2023/03/21 09:18:49;;;;;;;6.10;3.33;;;;;;;;;;5020369;28;20025;-63
2023/03/21 09:21:19;;;;;;;6.35;3.28;;;;;;;;;;5025928;28;20032;-60
2023/03/21 09:23:45;;;;;;;9.27;3.85;;;;;;;;;;5067125;28;20044;-63
2023/03/21 09:26:11;;;;;;;4.45;3.08;;;;;;;;;;5029357;28;20018;-59
2023/03/21 09:28:37;;;;;;;4.00;2.80;;;;;;;;;;5023404;28;20063;-61
2023/03/21 09:31:04;;;;;;;3.85;2.38;;;;;;;;;;5027389;28;20046;-62
2023/03/21 09:33:30;;;;;;;6.47;3.17;;;;;;;;;;5021304;28;20021;-63
2023/03/21 09:35:56;;;;;;;6.22;2.90;;;;;;;;;;5022600;28;20025;-65
2023/03/21 09:38:22;;;;;;;4.65;2.90;;;;;;;;;;5029954;28;20020;-63
2023/03/21 09:40:47;;;;;;;5.55;2.90;;;;;;;;;;5035975;28;20623;-60
2023/03/21 09:43:12;;;;;;;5.00;2.60;;;;;;;;;;5035563;28;20087;-60
2023/03/21 09:45:49;;;;;;;9.95;3.08;;;;;;;;;;5022487;28;20314;-63
2023/03/21 09:48:18;;;;;;;6.03;4.15;;;;;;;;;;5029981;28;20422;-63
2023/03/21 09:50:44;;;;;;;5.50;2.70;;;;;;;;;;5024406;28;20151;-58
2023/03/21 09:53:15;;;;;;;4.93;2.50;;;;;;;;;;5014948;28;20378;-55
2023/03/21 09:55:41;;;;;;;4.10;2.08;;;;;;;;;;5024541;28;20022;-51
2023/03/21 09:58:19;;;;;;;63.42;7.45;;;;;;;;;;5022645;28;20018;-53
2023/03/21 10:00:48;;;;;;;11.77;2.78;;;;;;;;;;5019488;28;21924;-58
2023/03/21 10:03:19;;;;;;;23.85;7.15;;;;;;;;;;5030426;28;20051;-55
2023/03/21 10:05:45;;;;;;;4.22;2.55;;;;;;;;;;5018785;28;20020;-60
2023/03/21 10:08:30;;;;;;;79.00;38.03;;;;;;;;;;5013992;28;20014;-57
2023/03/21 10:11:00;;;;;;;3.88;2.17;;;;;;;;;;5023095;28;20029;-55
2023/03/21 10:13:26;;;;;;;3.78;2.13;;;;;;;;;;5016920;28;20033;-54
2023/03/21 10:15:55;;;;;;;6.63;2.72;;;;;;;;;;5013978;28;20033;-54
2023/03/21 10:18:21;;;;;;;;;;;;;;;;;;5020426;28;20045;-53
2023/03/21 10:20:47;;;;;;;3.08;1.98;;;;;;;;;;5026368;28;20015;-52
2023/03/21 10:23:14;;;;;;;25.77;5.70;;;;;;;;;;5015214;28;20534;-54
2023/03/21 10:25:41;;;;;;;5.43;2.50;;;;;;;;;;5022895;28;20309;-58
2023/03/21 10:28:08;;;;;;;12.07;2.35;;;;;;;;;;5028642;28;20044;-60
2023/03/21 10:30:33;;;;;;;3.85;1.98;;;;;;;;;;5027158;28;20056;-61
2023/03/21 10:33:03;;;;;;;2.47;1.97;;;;;;;;;;5011133;28;20406;-60
2023/03/21 10:35:31;;;;;;;2.50;2.00;;;;;;;;;;5025673;28;20029;-60
2023/03/21 10:37:56;;;;;;;3.42;2.72;;;;;;;;;;5029731;28;20372;-60
2023/03/21 10:40:22;;;;;;;2.88;2.05;;;;;;;;;;5030167;28;20033;-58
2023/03/21 10:42:47;;;;;;;4.93;2.40;;;;;;;;;;5025166;28;20371;-60
2023/03/21 10:45:14;;;;;;;6.88;2.55;;;;;;;;;;5012188;28;20270;-57
2023/03/21 10:47:39;;;;;;;3.15;2.60;;;;;;;;;;5025490;28;20489;-58
2023/03/21 10:50:05;;;;;;;9.30;2.60;;;;;;;;;;5029045;28;20110;-61
2023/03/21 10:52:31;;;;;;;5.63;2.30;;;;;;;;;;5028574;28;20026;-60
2023/03/21 10:55:11;;;;;;;2.72;2.00;;;;;;;;;;5028484;28;20466;-58
2023/03/21 10:57:36;;;;;;;;;;;;;;;;;;5029887;28;20036;-60
2023/03/21 11:00:13;;;;;;;3.55;2.47;;;;;;;;;;5028385;28;19909;-61
2023/03/21 11:02:39;;;;;;;7.28;2.28;;;;;;;;;;5029094;28;20028;-59
2023/03/21 11:05:06;;;;;;;5.88;2.40;;;;;;;;;;5029002;28;20029;-59
2023/03/21 11:07:31;;;;;;;5.55;2.22;;;;;;;;;;5026349;28;20367;-57
2023/03/21 11:09:58;;;;;;;2.10;1.70;;;;;;;;;;5028465;28;20230;-59
2023/03/21 11:12:37;;;;;;;1.92;1.30;;;;;;;;;;5027282;28;20522;-59
2023/03/21 11:15:20;;;;;;;2.50;1.50;;;;;;;;;;5028804;28;20041;-60
2023/03/21 11:17:46;;;;;;;3.40;1.35;;;;;;;;;;5028604;28;20060;-60
2023/03/21 11:20:17;;;;;;;5.03;1.98;;;;;;;;;;5028853;28;20030;-61
2023/03/21 11:22:43;;;;;;;3.63;2.15;;;;;;;;;;5028018;28;20021;-61
2023/03/21 11:25:14;;;;;;;14.98;2.10;;;;;;;;;;5027041;28;20026;-59
2023/03/21 11:27:47;;;;;;;10.07;4.13;;;;;;;;;;5027284;28;20040;-60
2023/03/21 11:30:18;;;;;;;3.08;1.73;;;;;;;;;;5026784;28;20051;-61
2023/03/21 11:32:44;;;;;;;9.85;1.50;;;;;;;;;;5020790;28;20037;-61
2023/03/21 11:35:12;;;;;;;2.25;1.30;;;;;;;;;;5025483;28;20056;-62
2023/03/21 11:37:38;;;;;;;3.75;2.25;;;;;;;;;;5029421;28;20034;-62
2023/03/21 11:40:24;;;;;;;5.97;1.38;;;;;;;;;;5031450;28;20049;-62
2023/03/21 11:42:51;;;;;;;1.50;1.15;;;;;;;;;;5025160;28;20022;-59
2023/03/21 11:45:22;;;;;;;2.58;1.35;;;;;;;;;;5028828;28;20513;-62
2023/03/21 11:47:49;;;;;;;8.80;1.42;;;;;;;;;;5025554;28;20022;-61
2023/03/21 11:50:38;;;;;;;4.10;1.45;;;;;;;;;;5022191;28;20053;-58
2023/03/21 11:53:09;;;;;;;4.80;1.30;;;;;;;;;;5046890;28;20029;-58
2023/03/21 11:55:37;;;;;;;2.95;1.08;;;;;;;;;;5050148;28;20356;-56
2023/03/21 11:58:05;;;;;;;4.53;1.40;;;;;;;;;;5053327;28;20029;-61
2023/03/21 12:00:37;;;;;;;4.10;1.40;;;;;;;;;;5051424;28;20429;-52
2023/03/21 12:03:18;;;;;;;2.63;1.20;;;;;;;;;;5049363;28;20250;-62
2023/03/21 12:05:46;;;;;;;4.53;1.20;;;;;;;;;;5043597;28;20124;-61
2023/03/21 12:08:11;;;;;;;1.73;1.30;;;;;;;;;;5051514;28;20032;-61
2023/03/21 12:10:39;;;;;;;1.57;1.23;;;;;;;;;;5049965;28;20037;-60
2023/03/21 12:13:37;;;;;;;1.98;1.50;;;;;;;;;;5046295;28;20278;-61
2023/03/21 12:16:05;;;;;;;34.67;12.90;;;;;;;;;;5001146;28;20030;-57
2023/03/21 12:18:44;;;;;;;4.72;1.75;;;;;;;;;;5001786;28;20414;-59
2023/03/21 12:21:16;;;;;;;4.50;1.30;;;;;;;;;;4996611;28;20034;-60
2023/03/21 12:23:50;;;;;;;4.18;1.60;;;;;;;;;;4976350;28;20038;-56
2023/03/21 12:26:25;;;;;;;6.70;1.50;;;;;;;;;;4997868;28;20827;-59
2023/03/21 12:28:54;;;;;;;5.45;1.90;;;;;;;;;;5000865;28;20399;-55
2023/03/21 12:31:31;;;;;;;2.22;1.50;;;;;;;;;;4945625;28;20508;-58
2023/03/21 12:34:05;;;;;;;2.83;1.45;;;;;;;;;;4942839;28;20058;-59
2023/03/21 12:36:33;;;;;;;6.30;2.03;;;;;;;;;;4942367;28;20031;-57
2023/03/21 12:39:07;;;;;;;6.28;1.67;;;;;;;;;;4954553;28;20098;-57
2023/03/21 12:41:42;;;;;;;5.32;1.63;;;;;;;;;;4936585;28;20932;-59
2023/03/21 12:44:10;;;;;;;7.05;1.80;;;;;;;;;;4934567;28;20035;-61
2023/03/21 12:46:47;;;;;;;6.60;2.00;;;;;;;;;;4940892;28;20027;-61
2023/03/21 12:49:17;;;;;;;5.50;1.70;;;;;;;;;;4944305;29;20114;-63
2023/03/21 12:51:43;;;;;;;8.38;1.50;;;;;;;;;;4979903;28;20034;-64
2023/03/21 12:54:13;;;;;;;12.40;1.40;;;;;;;;;;5024675;28;20379;-63
2023/03/21 12:57:11;;;;;;;3.25;1.30;;;;;;;;;;5024612;28;20033;-61
2023/03/21 12:59:51;;;;;;;3.47;1.00;;;;;;;;;;5051803;28;20622;-65
2023/03/21 13:02:17;;;;;;;3.30;1.27;;;;;;;;;;5064009;28;20033;-63
2023/03/21 13:04:56;;;;;;;4.87;3.53;;;;;;;;;;5062509;28;20024;-65
2023/03/21 13:07:24;;;;;;;4.95;0.90;;;;;;;;;;5053511;28;20309;-69
2023/03/21 13:09:50;;;;;;;2.95;1.27;;;;;;;;;;5050640;28;20119;-60
2023/03/21 13:12:15;;;;;;;14.00;12.68;;;;;;;;;;5043562;28;20036;-61
2023/03/21 13:14:46;;;;;;;5.70;1.20;;;;;;;;;;5045385;28;20163;-59
2023/03/21 13:17:32;;;;;;;5.90;1.17;;;;;;;;;;5042528;28;20756;-55
2023/03/21 13:20:03;;;;;;;3.33;1.10;;;;;;;;;;4987180;28;20384;-56
2023/03/21 13:22:30;;;;;;;1.58;0.90;;;;;;;;;;4981412;28;20117;-58
2023/03/21 13:25:02;;;;;;;2.00;1.02;;;;;;;;;;4996639;28;20048;-60
2023/03/21 13:27:35;;;;;;;3.95;1.38;;;;;;;;;;4997863;28;20034;-57
2023/03/21 13:30:06;;;;;;;12.02;2.55;;;;;;;;;;4987998;28;20046;-54
2023/03/21 13:32:31;;;;;;;2.15;1.23;;;;;;;;;;5000398;28;20037;-63
2023/03/21 13:35:20;;;;;;;2.08;1.00;;;;;;;;;;4977294;28;20035;-63
2023/03/21 13:37:50;;;;;;;1.92;1.05;;;;;;;;;;4938902;28;20036;-59
2023/03/21 13:40:23;;;;;;;5.95;1.27;;;;;;;;;;4940105;29;20078;-60
2023/03/21 13:42:58;;;;;;;2.13;1.15;;;;;;;;;;4942758;28;20028;-63
2023/03/21 13:45:26;;;;;;;1.23;0.90;;;;;;;;;;4938309;28;20832;-59
2023/03/21 13:47:51;;;;;;;7.35;1.50;;;;;;;;;;4933902;28;20521;-60
2023/03/21 13:50:16;;;;;;;11.18;1.65;;;;;;;;;;4939667;28;20152;-59
2023/03/21 13:52:42;;;;;;;2.07;1.37;;;;;;;;;;4936520;29;20333;-54
2023/03/21 13:55:15;;;;;;;5.45;1.23;;;;;;;;;;4932623;28;20284;-59
2023/03/21 13:57:40;;;;;;;2.97;1.10;;;;;;;;;;4999807;28;20605;-60
2023/03/21 14:00:17;;;;;;;11.02;1.50;;;;;;;;;;5027812;28;20120;-59
2023/03/21 14:02:56;;;;;;;2.55;1.20;;;;;;;;;;5012311;28;20029;-61
2023/03/21 14:05:22;;;;;;;6.28;1.30;;;;;;;;;;5016082;28;20425;-63
2023/03/21 14:07:49;;;;;;;3.45;1.30;;;;;;;;;;5038634;28;20128;-59
2023/03/21 14:10:18;;;;;;;2.72;1.35;;;;;;;;;;5034848;28;20024;-59
2023/03/21 14:12:44;;;;;;;6.40;1.10;;;;;;;;;;5024481;28;20025;-59
2023/03/21 14:15:20;;;;;;;5.63;1.40;;;;;;;;;;5020366;28;20074;-61
2023/03/21 14:18:11;;;;;;;5.88;1.40;;;;;;;;;;5024970;28;20029;-60
2023/03/21 14:20:40;;;;;;;3.45;1.50;;;;;;;;;;5020609;28;20510;-55
2023/03/21 14:23:07;;;;;;;3.10;1.38;;;;;;;;;;5022832;28;20113;-56
2023/03/21 14:25:34;;;;;;;2.30;1.58;;;;;;;;;;5031422;28;20706;-59
2023/03/21 14:28:02;;;;;;;3.70;1.50;;;;;;;;;;5023931;28;20033;-58
2023/03/21 14:30:32;;;;;;;6.40;1.85;;;;;;;;;;5021316;28;22169;-52
2023/03/21 14:33:16;;;;;;;7.22;1.65;;;;;;;;;;5022308;28;20033;-59
2023/03/21 14:35:41;;;;;;;4.38;1.55;;;;;;;;;;5024393;28;20037;-59
2023/03/21 14:38:08;;;;;;;5.40;1.80;;;;;;;;;;5019791;28;20026;-58